createdAt,value
2022-10-12T00:02:20.955Z,1.63
2022-10-12T00:04:49.342Z,1.73
2022-10-12T00:07:17.802Z,1.88
2022-10-12T00:09:47.878Z,1.73
2022-10-12T00:12:17.767Z,1.83
2022-10-12T00:14:45.629Z,1.70
2022-10-12T00:17:13.822Z,2.10
2022-10-12T00:19:42.013Z,1.88
2022-10-12T00:22:10.056Z,1.75
2022-10-12T00:24:43.770Z,1.40
2022-10-12T00:27:11.747Z,1.95
2022-10-12T00:29:45.957Z,1.95
2022-10-12T00:32:13.869Z,2.20
2022-10-12T00:34:50.114Z,1.90
2022-10-12T00:37:18.553Z,2.22
2022-10-12T00:39:50.035Z,1.92
2022-10-12T00:42:21.408Z,1.83
2022-10-12T00:44:50.387Z,2.70
2022-10-12T00:47:23.651Z,2.75
2022-10-12T00:49:56.475Z,3.72
2022-10-12T00:52:30.188Z,3.88
2022-10-12T00:54:58.387Z,2.65
2022-10-12T00:57:26.274Z,2.95
2022-10-12T01:00:02.368Z,3.75
2022-10-12T01:02:32.754Z,3.50
2022-10-12T01:05:01.498Z,3.63
2022-10-12T01:07:30.020Z,3.08
2022-10-12T01:10:00.484Z,3.35
2022-10-12T01:12:28.738Z,3.50
2022-10-12T01:14:57.267Z,3.70
2022-10-12T01:17:50.013Z,3.65
2022-10-12T01:20:26.485Z,4.22
2022-10-12T01:23:06.894Z,4.20
2022-10-12T01:26:09.315Z,5.68
2022-10-12T01:28:55.644Z,4.43
2022-10-12T01:31:38.667Z,4.25
2022-10-12T01:34:20.586Z,4.80
2022-10-12T01:37:28.511Z,4.60
2022-10-12T01:40:01.717Z,5.25
2022-10-12T01:42:37.529Z,5.47
2022-10-12T01:45:07.286Z,5.13
2022-10-12T01:47:36.550Z,5.65
2022-10-12T01:50:08.606Z,5.93
2022-10-12T01:52:45.000Z,6.03
2022-10-12T01:55:30.150Z,6.18
2022-10-12T01:58:18.698Z,5.80
2022-10-12T02:00:53.301Z,5.75
2022-10-12T02:03:42.904Z,6.60
2022-10-12T02:06:15.566Z,9.85
2022-10-12T02:08:57.588Z,11.88
2022-10-12T02:11:26.479Z,7.25
2022-10-12T02:14:09.186Z,8.93
2022-10-12T02:17:01.293Z,8.98
2022-10-12T02:19:33.383Z,7.43
2022-10-12T02:22:04.716Z,8.27
2022-10-12T02:24:33.524Z,7.80
2022-10-12T02:27:02.897Z,9.00
2022-10-12T02:29:51.338Z,8.35
2022-10-12T02:32:31.400Z,8.73
2022-10-12T02:35:14.267Z,9.45
2022-10-12T02:37:49.340Z,11.05
2022-10-12T02:40:37.860Z,9.48
2022-10-12T02:45:55.222Z,9.05
2022-10-12T02:48:27.394Z,9.10
2022-10-12T02:50:57.180Z,9.35
2022-10-12T02:53:26.117Z,10.02
2022-10-12T02:56:00.289Z,8.73
2022-10-12T03:01:01.159Z,8.82
2022-10-12T03:03:30.235Z,8.75
2022-10-12T03:06:02.192Z,8.05
2022-10-12T03:08:35.139Z,9.27
2022-10-12T03:11:07.195Z,8.65
2022-10-12T03:13:36.141Z,8.25
2022-10-12T03:16:04.795Z,8.80
2022-10-12T03:18:34.548Z,8.48
2022-10-12T03:21:03.193Z,8.40
2022-10-12T03:23:31.369Z,9.25
2022-10-12T03:26:00.326Z,8.85
2022-10-12T03:28:30.719Z,8.00
2022-10-12T03:30:59.686Z,8.18
2022-10-12T03:33:29.022Z,9.00
2022-10-12T03:36:41.831Z,8.60
2022-10-12T03:39:21.230Z,8.35
2022-10-12T03:42:23.853Z,13.13
2022-10-12T03:44:52.180Z,8.50
2022-10-12T03:47:21.129Z,8.75
2022-10-12T03:49:51.241Z,8.45
2022-10-12T03:52:19.770Z,8.15
2022-10-12T03:54:48.037Z,8.02
2022-10-12T03:57:16.891Z,9.75
2022-10-12T03:59:46.186Z,8.13
2022-10-12T04:02:30.502Z,8.18
2022-10-12T04:05:01.163Z,7.45
2022-10-12T04:07:34.297Z,7.30
2022-10-12T04:10:03.581Z,9.90
2022-10-12T04:12:33.338Z,9.85
2022-10-12T04:15:03.383Z,10.80
2022-10-12T04:17:33.975Z,10.70
2022-10-12T04:20:04.161Z,9.18
2022-10-12T04:22:33.221Z,9.30
2022-10-12T04:25:12.737Z,9.90
2022-10-12T04:27:48.218Z,9.05
2022-10-12T04:30:19.392Z,8.83
2022-10-12T04:32:49.445Z,10.93
2022-10-12T04:35:28.202Z,9.05
2022-10-12T04:37:56.462Z,7.60
2022-10-12T04:41:06.005Z,6.30
2022-10-12T04:43:34.065Z,7.13
2022-10-12T04:47:08.992Z,7.28
2022-10-12T04:49:40.194Z,7.30
2022-10-12T04:52:11.257Z,7.68
2022-10-12T04:55:46.004Z,7.40
2022-10-12T04:58:14.309Z,7.20
2022-10-12T05:00:45.181Z,6.18
2022-10-12T05:03:16.636Z,6.53
2022-10-12T05:05:45.991Z,6.15
2022-10-12T05:08:22.202Z,6.68
2022-10-12T05:13:21.305Z,6.55
2022-10-12T05:15:51.252Z,6.95
2022-10-12T05:18:20.474Z,7.65
2022-10-12T05:20:50.431Z,6.32
2022-10-12T05:23:24.095Z,9.27
2022-10-12T05:25:52.181Z,8.00
2022-10-12T05:28:20.529Z,9.02
2022-10-12T05:30:55.711Z,8.32
2022-10-12T05:33:24.724Z,8.13
2022-10-12T05:36:58.530Z,9.23
2022-10-12T05:39:26.904Z,8.15
2022-10-12T05:41:56.211Z,8.30
2022-10-12T05:44:26.445Z,8.50
2022-10-12T05:46:55.127Z,7.97
2022-10-12T05:49:24.310Z,9.30
2022-10-12T05:52:13.326Z,8.77
2022-10-12T05:54:43.361Z,8.30
2022-10-12T05:57:15.910Z,8.07
2022-10-12T05:59:48.315Z,8.70
2022-10-12T06:02:18.490Z,8.38
2022-10-12T06:04:48.707Z,9.68
2022-10-12T06:07:18.430Z,8.98
2022-10-12T06:09:47.914Z,12.20
2022-10-12T06:12:24.518Z,8.85
2022-10-12T06:14:56.207Z,10.48
2022-10-12T06:17:24.274Z,9.20
2022-10-12T06:19:52.665Z,10.20
2022-10-12T06:22:24.725Z,10.65
2022-10-12T06:24:54.389Z,11.60
2022-10-12T06:27:22.406Z,12.50
2022-10-12T06:29:52.410Z,12.68
2022-10-12T06:32:22.666Z,12.07
2022-10-12T06:34:56.535Z,11.40
2022-10-12T06:37:48.614Z,12.07
2022-10-12T06:40:22.654Z,12.27
2022-10-12T06:45:21.759Z,11.25
2022-10-12T06:47:51.362Z,11.52
2022-10-12T06:50:25.420Z,12.10
2022-10-12T06:53:00.390Z,10.43
2022-10-12T06:55:31.800Z,11.57
2022-10-12T06:58:01.627Z,11.35
2022-10-12T07:00:32.480Z,10.15
2022-10-12T07:03:00.518Z,11.45
2022-10-12T07:05:40.719Z,9.73
2022-10-12T07:08:09.080Z,10.05
2022-10-12T07:10:37.546Z,11.18
2022-10-12T07:13:05.792Z,11.18
2022-10-12T07:15:53.598Z,15.13
2022-10-12T07:18:23.673Z,13.07
2022-10-12T07:20:52.002Z,13.95
2022-10-12T07:23:32.528Z,12.20
2022-10-12T07:26:00.508Z,11.80
2022-10-12T07:28:28.462Z,12.25
2022-10-12T07:31:18.900Z,10.00
2022-10-12T07:33:52.292Z,10.63
2022-10-12T07:36:40.966Z,11.27
2022-10-12T07:39:13.275Z,10.75
2022-10-12T07:41:42.735Z,10.65
2022-10-12T07:44:12.450Z,10.82
2022-10-12T07:46:40.694Z,10.93
2022-10-12T07:49:13.942Z,15.02
2022-10-12T07:51:42.849Z,14.77
2022-10-12T07:54:22.606Z,15.85
2022-10-12T07:56:54.033Z,16.23
2022-10-12T07:59:22.384Z,16.15
2022-10-12T08:01:51.838Z,16.33
2022-10-12T08:04:25.524Z,15.85
2022-10-12T08:06:54.285Z,14.75
2022-10-12T08:09:30.974Z,16.50
2022-10-12T08:12:28.891Z,14.38
2022-10-12T08:14:56.743Z,15.02
2022-10-12T08:18:35.231Z,16.00
2022-10-12T08:21:07.053Z,13.35
2022-10-12T08:23:38.321Z,15.20
2022-10-12T08:26:06.929Z,16.42
2022-10-12T08:28:37.757Z,15.40
2022-10-12T08:31:12.934Z,16.40
2022-10-12T08:33:43.503Z,15.48
2022-10-12T08:36:12.091Z,16.77
2022-10-12T08:38:40.784Z,15.05
2022-10-12T08:41:29.594Z,17.27
2022-10-12T08:44:27.613Z,17.65
2022-10-12T08:47:01.353Z,16.85
2022-10-12T08:49:36.575Z,19.90
2022-10-12T08:52:30.907Z,16.98
2022-10-12T08:55:25.808Z,15.10
2022-10-12T08:57:54.506Z,12.23
2022-10-12T09:01:58.439Z,10.55
2022-10-12T09:05:21.875Z,8.43
2022-10-12T09:07:55.118Z,7.03
2022-10-12T09:10:31.990Z,6.53
2022-10-12T09:13:24.569Z,10.02
2022-10-12T09:16:19.309Z,10.07
2022-10-12T09:18:51.444Z,10.05
2022-10-12T09:21:21.163Z,7.95
2022-10-12T09:25:00.023Z,7.70
2022-10-12T09:27:33.126Z,6.75
2022-10-12T09:30:05.960Z,4.18
2022-10-12T09:33:04.116Z,5.03
2022-10-12T09:35:33.007Z,6.65
2022-10-12T09:38:01.975Z,6.50
2022-10-12T09:40:33.899Z,7.93
2022-10-12T09:43:04.909Z,5.60
2022-10-12T09:45:40.878Z,6.97
2022-10-12T09:50:55.009Z,6.55
2022-10-12T09:53:43.934Z,6.82
2022-10-12T09:56:29.399Z,8.50
2022-10-12T09:59:04.954Z,8.67
2022-10-12T10:01:37.270Z,7.85
2022-10-12T10:04:14.536Z,8.13
2022-10-12T10:06:44.754Z,6.70
2022-10-12T10:09:33.826Z,6.72
2022-10-12T10:12:33.783Z,5.00
2022-10-12T10:15:02.368Z,4.80
2022-10-12T10:17:32.834Z,4.80
2022-10-12T10:20:03.169Z,4.50
2022-10-12T10:22:33.387Z,4.50
2022-10-12T10:25:03.255Z,5.10
2022-10-12T10:27:38.869Z,5.90
2022-10-12T10:30:33.902Z,5.30
2022-10-12T10:33:16.481Z,5.15
2022-10-12T10:36:18.376Z,5.30
2022-10-12T10:38:55.261Z,5.25
2022-10-12T10:41:39.060Z,4.93
2022-10-12T10:47:16.874Z,5.40
2022-10-12T10:49:51.001Z,4.70
2022-10-12T10:52:30.991Z,5.45
2022-10-12T10:55:11.111Z,3.85
2022-10-12T10:57:59.619Z,3.45
2022-10-12T11:00:39.219Z,3.58
2022-10-12T11:03:17.761Z,3.28
2022-10-12T11:06:18.211Z,2.90
2022-10-12T11:08:48.887Z,3.22
2022-10-12T11:11:21.926Z,2.42
2022-10-12T11:18:24.871Z,2.97
2022-10-12T11:21:00.121Z,3.10
2022-10-12T11:23:51.256Z,2.63
2022-10-12T11:26:43.888Z,2.85
2022-10-12T11:29:18.078Z,2.88
2022-10-12T11:31:49.531Z,2.35
2022-10-12T11:34:22.694Z,2.85
2022-10-12T11:37:14.675Z,2.50
2022-10-12T11:39:42.049Z,2.67
2022-10-12T11:42:28.386Z,2.70
2022-10-12T11:47:39.653Z,3.13
2022-10-12T11:50:33.605Z,3.85
2022-10-12T11:53:03.279Z,2.42
2022-10-12T11:55:31.908Z,5.00
2022-10-12T11:58:07.638Z,2.75
2022-10-12T12:01:06.792Z,3.30
2022-10-12T12:03:46.787Z,4.00
2022-10-12T12:06:30.201Z,3.38
2022-10-12T12:09:04.262Z,3.47
2022-10-12T12:11:33.933Z,4.55
2022-10-12T12:14:32.846Z,4.65
2022-10-12T12:17:17.222Z,3.28
2022-10-12T12:19:50.307Z,4.33
2022-10-12T12:22:25.813Z,3.53
2022-10-12T12:25:04.776Z,3.50
2022-10-12T12:27:56.823Z,3.45
2022-10-12T12:30:33.383Z,3.20
2022-10-12T12:33:03.612Z,2.92
2022-10-12T12:35:33.676Z,3.42
2022-10-12T12:38:25.888Z,3.80
2022-10-12T12:40:59.323Z,4.43
2022-10-12T12:43:31.451Z,5.20
2022-10-12T12:46:08.143Z,6.85
2022-10-12T12:48:42.376Z,5.57
2022-10-12T12:51:23.944Z,4.93
2022-10-12T12:54:24.311Z,6.03
2022-10-12T12:57:09.201Z,4.93
2022-10-12T12:59:42.757Z,4.25
2022-10-12T13:02:29.903Z,4.28
2022-10-12T13:05:06.900Z,4.30
2022-10-12T13:07:39.334Z,4.30
2022-10-12T13:10:07.725Z,4.15
2022-10-12T13:13:07.958Z,3.83
2022-10-12T13:16:05.267Z,4.07
2022-10-12T13:18:58.267Z,4.53
2022-10-12T13:21:47.937Z,3.90
2022-10-12T13:24:28.697Z,3.88
2022-10-12T13:27:04.592Z,4.78
2022-10-12T13:29:41.716Z,4.00
2022-10-12T13:32:41.895Z,4.20
2022-10-12T13:35:23.191Z,4.72
2022-10-12T13:38:01.433Z,4.25
2022-10-12T13:40:37.294Z,4.38
2022-10-12T13:43:28.517Z,3.97
2022-10-12T13:45:56.718Z,4.47
2022-10-12T13:48:53.740Z,4.68
2022-10-12T13:51:25.169Z,6.15
2022-10-12T13:53:55.085Z,3.88
2022-10-12T13:56:28.824Z,7.25
2022-10-12T13:59:01.683Z,4.43
2022-10-12T14:01:31.097Z,4.57
2022-10-12T14:04:04.666Z,4.55
2022-10-12T14:06:34.625Z,4.28
2022-10-12T14:09:10.789Z,5.53
2022-10-12T14:11:42.647Z,4.30
2022-10-12T14:14:38.942Z,4.07
2022-10-12T14:17:07.109Z,4.95
2022-10-12T14:19:48.117Z,5.70
2022-10-12T14:22:22.187Z,4.82
2022-10-12T14:24:52.499Z,4.18
2022-10-12T14:27:25.800Z,4.75
2022-10-12T14:29:58.221Z,3.90
2022-10-12T14:32:38.171Z,4.05
2022-10-12T14:35:13.019Z,4.63
2022-10-12T14:37:41.060Z,4.70
2022-10-12T14:40:29.853Z,4.57
2022-10-12T14:43:00.080Z,5.20
2022-10-12T14:45:29.211Z,5.80
2022-10-12T14:47:59.777Z,5.78
2022-10-12T14:50:29.075Z,6.35
2022-10-12T14:52:58.326Z,7.85
2022-10-12T14:55:28.871Z,5.28
2022-10-12T14:57:56.904Z,5.80
2022-10-12T15:00:30.133Z,7.00
2022-10-12T15:02:58.826Z,17.10
2022-10-12T15:05:29.224Z,11.15
2022-10-12T15:07:59.804Z,11.77
2022-10-12T15:10:31.101Z,12.52
2022-10-12T15:12:59.997Z,15.77
2022-10-12T15:15:40.193Z,13.75
2022-10-12T15:18:16.986Z,12.80
2022-10-12T15:20:49.827Z,8.05
2022-10-12T15:23:19.061Z,8.43
2022-10-12T15:26:01.462Z,18.35
2022-10-12T15:28:34.387Z,55.05
2022-10-12T15:31:19.703Z,57.65
2022-10-12T15:33:48.183Z,35.08
2022-10-12T15:36:16.932Z,24.88
2022-10-12T15:38:45.001Z,27.17
2022-10-12T15:41:38.634Z,18.52
2022-10-12T15:44:06.817Z,19.45
2022-10-12T15:46:34.976Z,10.98
2022-10-12T15:49:02.963Z,8.50
2022-10-12T15:51:31.098Z,9.75
2022-10-12T15:53:59.597Z,7.70
2022-10-12T15:56:31.066Z,7.05
2022-10-12T15:58:59.104Z,8.40
2022-10-12T16:01:29.644Z,7.72
2022-10-12T16:03:57.526Z,8.55
2022-10-12T16:06:26.546Z,8.40
2022-10-12T16:08:54.648Z,8.52
2022-10-12T16:11:23.801Z,9.35
2022-10-12T16:13:56.942Z,10.18
2022-10-12T16:16:25.402Z,9.38
2022-10-12T16:18:55.017Z,10.50
2022-10-12T16:21:23.038Z,10.05
2022-10-12T16:23:50.934Z,13.68
2022-10-12T16:26:27.484Z,19.88
2022-10-12T16:28:56.084Z,19.55
2022-10-12T16:31:24.283Z,17.83
2022-10-12T16:33:53.110Z,16.75
2022-10-12T16:36:21.931Z,16.58
2022-10-12T16:39:09.953Z,14.20
2022-10-12T16:41:40.425Z,17.85
2022-10-12T16:44:08.810Z,15.90
2022-10-12T16:46:37.865Z,17.67
2022-10-12T16:49:06.652Z,16.33
2022-10-12T16:51:39.231Z,18.83
2022-10-12T16:54:11.857Z,17.08
2022-10-12T16:56:41.243Z,19.25
2022-10-12T16:59:16.451Z,23.45
2022-10-12T17:01:49.707Z,20.70
2022-10-12T17:04:18.110Z,21.25
2022-10-12T17:06:46.334Z,15.55
2022-10-12T17:09:14.100Z,14.88
2022-10-12T17:11:42.040Z,13.15
2022-10-12T17:14:17.734Z,13.15
2022-10-12T17:16:50.806Z,13.15
2022-10-12T17:19:27.246Z,12.25
2022-10-12T17:21:58.606Z,12.75
2022-10-12T17:24:33.422Z,11.57
2022-10-12T17:27:05.355Z,11.40
2022-10-12T17:29:45.260Z,12.85
2022-10-12T17:32:14.690Z,12.55
2022-10-12T17:34:46.207Z,12.57
2022-10-12T17:37:16.396Z,10.52
2022-10-12T17:39:49.411Z,11.80
2022-10-12T17:42:22.846Z,11.73
2022-10-12T17:44:51.256Z,11.60
2022-10-12T17:47:20.208Z,12.45
2022-10-12T17:49:48.818Z,13.50
2022-10-12T17:52:19.628Z,16.00
2022-10-12T17:54:47.997Z,17.05
2022-10-12T17:57:16.185Z,22.60
2022-10-12T17:59:44.586Z,23.08
2022-10-12T18:02:12.853Z,25.50
2022-10-12T18:04:41.418Z,25.38
2022-10-12T18:07:09.669Z,24.30
2022-10-12T18:09:39.162Z,22.25
2022-10-12T18:12:07.027Z,21.58
2022-10-12T18:14:35.488Z,22.33
2022-10-12T18:17:51.364Z,23.80
2022-10-12T18:20:19.945Z,25.00
2022-10-12T18:22:47.858Z,21.73
2022-10-12T18:25:19.686Z,22.85
2022-10-12T18:27:50.355Z,22.13
2022-10-12T18:30:18.974Z,21.73
2022-10-12T18:32:49.157Z,24.08
2022-10-12T18:35:17.202Z,21.63
2022-10-12T18:37:45.237Z,19.63
2022-10-12T18:40:16.410Z,18.42
2022-10-12T18:42:44.857Z,19.02
2022-10-12T18:45:21.617Z,17.73
2022-10-12T18:47:53.084Z,16.40
2022-10-12T18:50:21.467Z,16.27
2022-10-12T18:52:49.713Z,14.55
2022-10-12T18:55:22.246Z,15.80
2022-10-12T18:57:50.294Z,13.90
2022-10-12T19:00:19.159Z,16.95
2022-10-12T19:02:47.219Z,14.55
2022-10-12T19:05:17.615Z,13.40
2022-10-12T19:07:50.409Z,12.77
2022-10-12T19:14:04.215Z,11.90
2022-10-12T19:16:57.490Z,11.70
2022-10-12T19:19:35.909Z,12.88
2022-10-12T19:22:06.620Z,11.95
2022-10-12T19:24:35.585Z,11.05
2022-10-12T19:27:04.334Z,10.93
2022-10-12T19:29:45.841Z,10.18
2022-10-12T19:32:14.211Z,11.63
2022-10-12T19:34:45.396Z,11.13
2022-10-12T19:37:16.432Z,11.32
2022-10-12T19:39:47.229Z,11.65
2022-10-12T19:42:49.373Z,11.23
2022-10-12T19:45:19.533Z,10.55
2022-10-12T19:47:53.715Z,12.60
2022-10-12T19:51:47.788Z,10.25
2022-10-12T19:54:52.817Z,9.75
2022-10-12T19:57:23.893Z,12.38
2022-10-12T19:59:52.699Z,11.30
2022-10-12T20:02:24.504Z,10.90
2022-10-12T20:04:54.387Z,10.25
2022-10-12T20:07:23.666Z,10.13
2022-10-12T20:09:51.999Z,11.30
2022-10-12T20:12:20.962Z,9.57
2022-10-12T20:14:49.171Z,10.18
2022-10-12T20:17:17.593Z,9.77
2022-10-12T20:19:46.298Z,9.55
2022-10-12T20:22:14.205Z,10.52
2022-10-12T20:24:42.199Z,9.43
2022-10-12T20:27:09.950Z,9.73
2022-10-12T20:29:41.594Z,9.45
2022-10-12T20:32:10.462Z,10.35
2022-10-12T20:34:38.645Z,10.15
2022-10-12T20:37:08.234Z,9.77
2022-10-12T20:39:37.543Z,10.05
2022-10-12T20:42:05.417Z,9.80
2022-10-12T20:44:33.463Z,10.10
2022-10-12T20:47:02.222Z,9.63
2022-10-12T20:49:31.485Z,10.25
2022-10-12T20:52:00.590Z,10.23
2022-10-12T20:54:32.466Z,9.63
2022-10-12T20:57:00.835Z,9.25
2022-10-12T20:59:28.757Z,8.57
2022-10-12T21:01:56.687Z,9.13
2022-10-12T21:04:26.431Z,8.88
2022-10-12T21:06:54.458Z,8.40
2022-10-12T21:09:23.183Z,8.82
2022-10-12T21:11:51.310Z,7.60
2022-10-12T21:14:19.365Z,8.20
2022-10-12T21:16:47.512Z,9.65
2022-10-12T21:19:16.798Z,9.00
2022-10-12T21:21:46.779Z,8.80
2022-10-12T21:24:14.855Z,9.68
2022-10-12T21:26:42.996Z,9.57
2022-10-12T21:29:12.033Z,9.02
2022-10-12T21:31:40.383Z,8.95
2022-10-12T21:34:10.396Z,9.00
2022-10-12T21:36:38.598Z,8.73
2022-10-12T21:39:14.370Z,8.43
2022-10-12T21:41:44.174Z,8.70
2022-10-12T21:44:12.359Z,8.15
2022-10-12T21:46:40.280Z,8.57
2022-10-12T21:49:15.405Z,8.75
2022-10-12T21:51:43.422Z,8.68
2022-10-12T21:54:11.357Z,8.45
2022-10-12T21:56:39.294Z,8.10
2022-10-12T21:59:10.610Z,7.70
2022-10-12T22:01:40.409Z,8.15
2022-10-12T22:04:14.347Z,8.38
2022-10-12T22:06:43.334Z,7.50
2022-10-12T22:09:16.804Z,7.68
2022-10-12T22:11:48.169Z,7.82
2022-10-12T22:14:18.098Z,7.07
2022-10-12T22:16:46.249Z,8.07
2022-10-12T22:19:18.393Z,7.78
2022-10-12T22:21:47.459Z,7.47
2022-10-12T22:24:16.038Z,6.93
2022-10-12T22:26:43.906Z,7.68
2022-10-12T22:29:13.531Z,6.85
2022-10-12T22:31:47.821Z,6.75
2022-10-12T22:34:18.837Z,6.25
2022-10-12T22:36:47.715Z,6.28
2022-10-12T22:39:20.852Z,6.85
2022-10-12T22:41:48.890Z,6.30
2022-10-12T22:44:16.768Z,6.03
2022-10-12T22:46:44.655Z,5.40
2022-10-12T22:49:13.538Z,6.68
2022-10-12T22:51:41.560Z,6.32
2022-10-12T22:54:10.034Z,6.28
2022-10-12T22:56:42.527Z,5.63
2022-10-12T22:59:15.471Z,5.75
2022-10-12T23:01:43.965Z,6.05
2022-10-12T23:04:11.980Z,5.25
2022-10-12T23:06:40.758Z,6.30
2022-10-12T23:09:10.028Z,6.30
2022-10-12T23:11:38.093Z,4.93
2022-10-12T23:14:06.104Z,5.28
2022-10-12T23:16:34.462Z,7.07
2022-10-12T23:19:04.016Z,6.15
2022-10-12T23:21:32.808Z,5.95
2022-10-12T23:24:05.219Z,5.50
2022-10-12T23:26:34.697Z,5.75
2022-10-12T23:29:05.338Z,5.93
2022-10-12T23:31:35.708Z,6.03
2022-10-12T23:34:10.135Z,5.72
2022-10-12T23:36:38.250Z,5.32
2022-10-12T23:39:06.206Z,5.32
2022-10-12T23:41:34.335Z,5.90
2022-10-12T23:44:02.326Z,6.13
2022-10-12T23:46:30.804Z,6.22
2022-10-12T23:49:00.564Z,5.35
2022-10-12T23:51:28.904Z,5.82
2022-10-12T23:53:57.640Z,6.07
2022-10-12T23:56:25.822Z,5.72
2022-10-12T23:58:56.950Z,6.20
